sensor_id;sensor_type;location;lat;lon;timestamp;pressure;altitude;pressure_sealevel;temperature;humidity
76024;BME280;64719;52.124;6.226;2023-09-19T00:01:31;100799.66;;;16.17;100.00
76024;BME280;64719;52.124;6.226;2023-09-19T00:03:59;100804.84;;;16.09;100.00
76024;BME280;64719;52.124;6.226;2023-09-19T00:06:28;100796.34;;;16.00;100.00
76024;BME280;64719;52.124;6.226;2023-09-19T00:08:57;100798.81;;;16.07;100.00
76024;BME280;64719;52.124;6.226;2023-09-19T00:11:24;100803.47;;;16.11;100.00
76024;BME280;64719;52.124;6.226;2023-09-19T00:13:52;100804.31;;;16.12;100.00
76024;BME280;64719;52.124;6.226;2023-09-19T00:16:20;100805.88;;;15.98;100.00
76024;BME280;64719;52.124;6.226;2023-09-19T00:18:46;100806.69;;;15.88;100.00
76024;BME280;64719;52.124;6.226;2023-09-19T00:21:15;100809.72;;;15.97;100.00
76024;BME280;64719;52.124;6.226;2023-09-19T00:23:42;100800.91;;;15.85;100.00
76024;BME280;64719;52.124;6.226;2023-09-19T00:26:08;100802.59;;;15.91;100.00
76024;BME280;64719;52.124;6.226;2023-09-19T00:28:35;100814.63;;;15.95;100.00
76024;BME280;64719;52.124;6.226;2023-09-19T00:31:01;100821.00;;;16.10;100.00
76024;BME280;64719;52.124;6.226;2023-09-19T00:33:28;100817.97;;;16.02;100.00
76024;BME280;64719;52.124;6.226;2023-09-19T00:35:56;100820.63;;;15.92;100.00
76024;BME280;64719;52.124;6.226;2023-09-19T00:38:24;100820.09;;;15.95;100.00
76024;BME280;64719;52.124;6.226;2023-09-19T00:40:53;100814.63;;;15.90;100.00
76024;BME280;64719;52.124;6.226;2023-09-19T00:43:22;100821.75;;;15.91;100.00
76024;BME280;64719;52.124;6.226;2023-09-19T00:45:51;100823.97;;;15.99;100.00
76024;BME280;64719;52.124;6.226;2023-09-19T00:48:19;100831.38;;;16.03;100.00
76024;BME280;64719;52.124;6.226;2023-09-19T00:50:46;100822.91;;;16.05;100.00
76024;BME280;64719;52.124;6.226;2023-09-19T00:53:17;100827.25;;;15.96;100.00
76024;BME280;64719;52.124;6.226;2023-09-19T00:55:46;100824.84;;;16.09;100.00
76024;BME280;64719;52.124;6.226;2023-09-19T00:58:13;100830.81;;;16.01;100.00
76024;BME280;64719;52.124;6.226;2023-09-19T01:00:40;100831.13;;;16.05;100.00
76024;BME280;64719;52.124;6.226;2023-09-19T01:03:10;100846.94;;;15.93;100.00
76024;BME280;64719;52.124;6.226;2023-09-19T01:05:38;100839.50;;;15.83;100.00
76024;BME280;64719;52.124;6.226;2023-09-19T01:08:05;100845.81;;;15.84;100.00
76024;BME280;64719;52.124;6.226;2023-09-19T01:10:33;100845.28;;;15.92;100.00
76024;BME280;64719;52.124;6.226;2023-09-19T01:13:05;100853.19;;;15.83;100.00
76024;BME280;64719;52.124;6.226;2023-09-19T01:15:40;100855.13;;;15.88;100.00
76024;BME280;64719;52.124;6.226;2023-09-19T01:18:19;100856.22;;;15.87;100.00
76024;BME280;64719;52.124;6.226;2023-09-19T01:20:55;100853.22;;;15.88;100.00
76024;BME280;64719;52.124;6.226;2023-09-19T01:23:29;100859.00;;;15.97;100.00
76024;BME280;64719;52.124;6.226;2023-09-19T01:26:06;100858.13;;;15.86;100.00
76024;BME280;64719;52.124;6.226;2023-09-19T01:28:45;100859.81;;;15.97;100.00
76024;BME280;64719;52.124;6.226;2023-09-19T01:31:21;100860.03;;;15.86;100.00
76024;BME280;64719;52.124;6.226;2023-09-19T01:33:56;100867.13;;;15.82;100.00
76024;BME280;64719;52.124;6.226;2023-09-19T01:36:25;100865.75;;;15.79;100.00
76024;BME280;64719;52.124;6.226;2023-09-19T01:38:52;100865.94;;;15.63;100.00
76024;BME280;64719;52.124;6.226;2023-09-19T01:41:29;100862.38;;;15.62;100.00
76024;BME280;64719;52.124;6.226;2023-09-19T01:44:00;100873.53;;;15.56;100.00
76024;BME280;64719;52.124;6.226;2023-09-19T01:46:34;100878.72;;;15.52;100.00
76024;BME280;64719;52.124;6.226;2023-09-19T01:49:14;100876.47;;;15.44;100.00
76024;BME280;64719;52.124;6.226;2023-09-19T01:51:48;100876.78;;;15.53;100.00
76024;BME280;64719;52.124;6.226;2023-09-19T01:54:24;100875.72;;;15.59;100.00
76024;BME280;64719;52.124;6.226;2023-09-19T01:56:59;100876.53;;;15.54;100.00
76024;BME280;64719;52.124;6.226;2023-09-19T01:59:34;100868.16;;;15.71;100.00
76024;BME280;64719;52.124;6.226;2023-09-19T02:02:04;100871.75;;;15.81;100.00
76024;BME280;64719;52.124;6.226;2023-09-19T02:04:32;100869.59;;;15.83;100.00
76024;BME280;64719;52.124;6.226;2023-09-19T02:07:00;100880.00;;;15.86;100.00
76024;BME280;64719;52.124;6.226;2023-09-19T02:09:27;100874.31;;;15.93;100.00
76024;BME280;64719;52.124;6.226;2023-09-19T02:11:54;100885.00;;;15.53;100.00
76024;BME280;64719;52.124;6.226;2023-09-19T02:14:21;100887.34;;;15.39;100.00
76024;BME280;64719;52.124;6.226;2023-09-19T02:16:47;100893.56;;;15.35;100.00
76024;BME280;64719;52.124;6.226;2023-09-19T02:19:16;100882.31;;;15.26;100.00
76024;BME280;64719;52.124;6.226;2023-09-19T02:21:43;100892.03;;;15.12;100.00
76024;BME280;64719;52.124;6.226;2023-09-19T02:24:09;100891.56;;;15.20;100.00
76024;BME280;64719;52.124;6.226;2023-09-19T02:26:37;100891.50;;;15.15;100.00
76024;BME280;64719;52.124;6.226;2023-09-19T02:29:04;100892.63;;;15.19;100.00
76024;BME280;64719;52.124;6.226;2023-09-19T02:31:30;100891.56;;;15.20;100.00
76024;BME280;64719;52.124;6.226;2023-09-19T02:33:57;100894.16;;;15.37;100.00
76024;BME280;64719;52.124;6.226;2023-09-19T02:36:26;100880.47;;;15.37;100.00
76024;BME280;64719;52.124;6.226;2023-09-19T02:38:53;100879.56;;;15.26;100.00
76024;BME280;64719;52.124;6.226;2023-09-19T02:41:19;100879.09;;;15.03;100.00
76024;BME280;64719;52.124;6.226;2023-09-19T02:43:46;100880.22;;;15.07;100.00
76024;BME280;64719;52.124;6.226;2023-09-19T02:46:12;100888.91;;;14.99;100.00
76024;BME280;64719;52.124;6.226;2023-09-19T02:48:39;100886.34;;;14.87;100.00
76024;BME280;64719;52.124;6.226;2023-09-19T02:51:07;100890.91;;;14.82;100.00
76024;BME280;64719;52.124;6.226;2023-09-19T02:53:35;100901.56;;;14.83;100.00
76024;BME280;64719;52.124;6.226;2023-09-19T02:56:02;100892.47;;;14.73;100.00
76024;BME280;64719;52.124;6.226;2023-09-19T02:58:29;100891.69;;;14.77;100.00
76024;BME280;64719;52.124;6.226;2023-09-19T03:01:07;100882.97;;;14.80;100.00
76024;BME280;64719;52.124;6.226;2023-09-19T03:03:34;100887.31;;;14.76;100.00
76024;BME280;64719;52.124;6.226;2023-09-19T03:06:02;100895.44;;;14.71;100.00
76024;BME280;64719;52.124;6.226;2023-09-19T03:08:29;100889.22;;;15.07;100.00
76024;BME280;64719;52.124;6.226;2023-09-19T03:10:57;100893.06;;;15.06;100.00
76024;BME280;64719;52.124;6.226;2023-09-19T03:13:26;100894.09;;;15.00;100.00
76024;BME280;64719;52.124;6.226;2023-09-19T03:15:54;100903.91;;;14.96;100.00
76024;BME280;64719;52.124;6.226;2023-09-19T03:18:22;100902.25;;;14.95;100.00
76024;BME280;64719;52.124;6.226;2023-09-19T03:20:52;100906.38;;;14.98;100.00
76024;BME280;64719;52.124;6.226;2023-09-19T03:23:20;100895.13;;;14.94;100.00
76024;BME280;64719;52.124;6.226;2023-09-19T03:25:46;100899.81;;;14.99;100.00
76024;BME280;64719;52.124;6.226;2023-09-19T03:28:15;100897.56;;;14.91;100.00
76024;BME280;64719;52.124;6.226;2023-09-19T03:30:41;100891.47;;;14.84;100.00
76024;BME280;64719;52.124;6.226;2023-09-19T03:33:08;100889.31;;;14.86;100.00
76024;BME280;64719;52.124;6.226;2023-09-19T03:35:37;100884.66;;;14.86;100.00
76024;BME280;64719;52.124;6.226;2023-09-19T03:38:04;100894.31;;;14.94;100.00
76024;BME280;64719;52.124;6.226;2023-09-19T03:40:30;100887.91;;;14.83;100.00
76024;BME280;64719;52.124;6.226;2023-09-19T03:43:00;100892.56;;;14.83;100.00
76024;BME280;64719;52.124;6.226;2023-09-19T03:45:28;100899.94;;;14.82;100.00
76024;BME280;64719;52.124;6.226;2023-09-19T03:47:54;100893.34;;;14.78;100.00
76024;BME280;64719;52.124;6.226;2023-09-19T03:50:21;100904.13;;;14.63;100.00
76024;BME280;64719;52.124;6.226;2023-09-19T03:52:48;100902.72;;;14.60;100.00
76024;BME280;64719;52.124;6.226;2023-09-19T03:55:14;100910.91;;;14.60;100.00
76024;BME280;64719;52.124;6.226;2023-09-19T03:57:41;100907.13;;;14.66;100.00
76024;BME280;64719;52.124;6.226;2023-09-19T04:00:08;100914.72;;;14.59;100.00
76024;BME280;64719;52.124;6.226;2023-09-19T04:02:38;100902.84;;;14.49;100.00
76024;BME280;64719;52.124;6.226;2023-09-19T04:05:05;100897.97;;;14.51;100.00
76024;BME280;64719;52.124;6.226;2023-09-19T04:07:31;100894.16;;;14.52;100.00
76024;BME280;64719;52.124;6.226;2023-09-19T04:09:59;100887.00;;;14.46;100.00
76024;BME280;64719;52.124;6.226;2023-09-19T04:12:26;100883.41;;;14.45;100.00
76024;BME280;64719;52.124;6.226;2023-09-19T04:14:52;100882.38;;;14.46;100.00
76024;BME280;64719;52.124;6.226;2023-09-19T04:17:19;100885.28;;;14.40;100.00
76024;BME280;64719;52.124;6.226;2023-09-19T04:19:47;100901.03;;;14.33;100.00
76024;BME280;64719;52.124;6.226;2023-09-19T04:22:13;100913.28;;;14.30;100.00
76024;BME280;64719;52.124;6.226;2023-09-19T04:24:40;100923.38;;;14.30;100.00
76024;BME280;64719;52.124;6.226;2023-09-19T04:27:06;100929.34;;;14.27;100.00
76024;BME280;64719;52.124;6.226;2023-09-19T04:29:33;100926.66;;;14.32;100.00
76024;BME280;64719;52.124;6.226;2023-09-19T04:32:00;100935.31;;;14.45;100.00
76024;BME280;64719;52.124;6.226;2023-09-19T04:34:29;100934.16;;;14.63;100.00
76024;BME280;64719;52.124;6.226;2023-09-19T04:36:57;100938.53;;;14.64;100.00
76024;BME280;64719;52.124;6.226;2023-09-19T04:39:25;100936.13;;;14.68;100.00
76024;BME280;64719;52.124;6.226;2023-09-19T04:41:52;100944.56;;;14.66;100.00
76024;BME280;64719;52.124;6.226;2023-09-19T04:44:19;100939.91;;;14.66;100.00
76024;BME280;64719;52.124;6.226;2023-09-19T04:46:45;100946.72;;;14.64;100.00
76024;BME280;64719;52.124;6.226;2023-09-19T04:49:12;100947.31;;;14.66;100.00
76024;BME280;64719;52.124;6.226;2023-09-19T04:51:39;100938.53;;;14.64;100.00
76024;BME280;64719;52.124;6.226;2023-09-19T04:54:07;100942.03;;;14.59;100.00
76024;BME280;64719;52.124;6.226;2023-09-19T04:56:34;100949.09;;;14.55;100.00
76024;BME280;64719;52.124;6.226;2023-09-19T04:59:01;100958.56;;;14.48;100.00
76024;BME280;64719;52.124;6.226;2023-09-19T05:01:27;100964.03;;;14.48;100.00
76024;BME280;64719;52.124;6.226;2023-09-19T05:03:54;100968.66;;;14.47;100.00
76024;BME280;64719;52.124;6.226;2023-09-19T05:06:21;100963.69;;;14.44;100.00
76024;BME280;64719;52.124;6.226;2023-09-19T05:08:48;100970.25;;;14.43;100.00
76024;BME280;64719;52.124;6.226;2023-09-19T05:11:17;100961.81;;;14.45;100.00
76024;BME280;64719;52.124;6.226;2023-09-19T05:13:44;100960.63;;;14.41;100.00
76024;BME280;64719;52.124;6.226;2023-09-19T05:16:10;100961.91;;;14.55;100.00
76024;BME280;64719;52.124;6.226;2023-09-19T05:18:37;100958.16;;;14.61;100.00
76024;BME280;64719;52.124;6.226;2023-09-19T05:21:04;100949.34;;;14.54;100.00
76024;BME280;64719;52.124;6.226;2023-09-19T05:23:30;100948.59;;;14.58;100.00
76024;BME280;64719;52.124;6.226;2023-09-19T05:25:57;100972.00;;;14.54;100.00
76024;BME280;64719;52.124;6.226;2023-09-19T05:28:26;100961.72;;;14.61;100.00
76024;BME280;64719;52.124;6.226;2023-09-19T05:30:53;100961.22;;;14.64;100.00
76024;BME280;64719;52.124;6.226;2023-09-19T05:33:19;100952.09;;;14.81;100.00
76024;BME280;64719;52.124;6.226;2023-09-19T05:35:48;100961.44;;;14.85;100.00
76024;BME280;64719;52.124;6.226;2023-09-19T05:38:14;100953.66;;;14.98;100.00
76024;BME280;64719;52.124;6.226;2023-09-19T05:40:44;100966.38;;;14.88;100.00
76024;BME280;64719;52.124;6.226;2023-09-19T05:43:11;100972.84;;;15.03;100.00
76024;BME280;64719;52.124;6.226;2023-09-19T05:45:40;100966.53;;;15.03;100.00
76024;BME280;64719;52.124;6.226;2023-09-19T05:48:08;100974.22;;;15.06;100.00
76024;BME280;64719;52.124;6.226;2023-09-19T05:50:35;100972.66;;;15.15;100.00
76024;BME280;64719;52.124;6.226;2023-09-19T05:53:02;100963.59;;;15.09;100.00
76024;BME280;64719;52.124;6.226;2023-09-19T05:55:29;100968.44;;;15.29;100.00
76024;BME280;64719;52.124;6.226;2023-09-19T05:57:56;100966.22;;;15.26;100.00
76024;BME280;64719;52.124;6.226;2023-09-19T06:00:24;100957.09;;;15.15;100.00
76024;BME280;64719;52.124;6.226;2023-09-19T06:02:54;100961.66;;;15.05;100.00
76024;BME280;64719;52.124;6.226;2023-09-19T06:05:22;100969.41;;;15.13;100.00
76024;BME280;64719;52.124;6.226;2023-09-19T06:07:50;100970.84;;;15.20;100.00
76024;BME280;64719;52.124;6.226;2023-09-19T06:10:17;100978.41;;;15.13;100.00
76024;BME280;64719;52.124;6.226;2023-09-19T06:12:46;100984.34;;;15.32;100.00
76024;BME280;64719;52.124;6.226;2023-09-19T06:15:14;100985.06;;;15.22;100.00
76024;BME280;64719;52.124;6.226;2023-09-19T06:17:46;100985.63;;;15.24;100.00
76024;BME280;64719;52.124;6.226;2023-09-19T06:20:14;100991.59;;;15.43;100.00
76024;BME280;64719;52.124;6.226;2023-09-19T06:22:42;100987.94;;;15.64;100.00
76024;BME280;64719;52.124;6.226;2023-09-19T06:25:09;100991.25;;;15.71;100.00
76024;BME280;64719;52.124;6.226;2023-09-19T06:27:37;100996.38;;;15.94;100.00
76024;BME280;64719;52.124;6.226;2023-09-19T06:30:05;100989.88;;;16.05;100.00
76024;BME280;64719;52.124;6.226;2023-09-19T06:32:33;100990.22;;;16.13;100.00
76024;BME280;64719;52.124;6.226;2023-09-19T06:34:59;100994.16;;;16.32;100.00
76024;BME280;64719;52.124;6.226;2023-09-19T06:37:28;101002.47;;;16.06;100.00
76024;BME280;64719;52.124;6.226;2023-09-19T06:39:55;101009.97;;;16.20;100.00
76024;BME280;64719;52.124;6.226;2023-09-19T06:42:22;101006.16;;;16.68;100.00
76024;BME280;64719;52.124;6.226;2023-09-19T06:44:49;101007.13;;;17.14;100.00
76024;BME280;64719;52.124;6.226;2023-09-19T06:47:15;101023.59;;;17.34;100.00
76024;BME280;64719;52.124;6.226;2023-09-19T06:49:42;101019.28;;;18.03;100.00
76024;BME280;64719;52.124;6.226;2023-09-19T06:52:09;101020.59;;;18.31;100.00
76024;BME280;64719;52.124;6.226;2023-09-19T06:54:37;101010.72;;;18.30;100.00
76024;BME280;64719;52.124;6.226;2023-09-19T06:57:05;101014.63;;;17.58;100.00
76024;BME280;64719;52.124;6.226;2023-09-19T06:59:34;101008.03;;;17.49;100.00
76024;BME280;64719;52.124;6.226;2023-09-19T07:02:02;101008.53;;;17.41;100.00
76024;BME280;64719;52.124;6.226;2023-09-19T07:04:31;101002.53;;;17.74;100.00
76024;BME280;64719;52.124;6.226;2023-09-19T07:06:58;100990.16;;;17.42;100.00
76024;BME280;64719;52.124;6.226;2023-09-19T07:09:24;100996.53;;;17.57;100.00
76024;BME280;64719;52.124;6.226;2023-09-19T07:11:53;101001.19;;;17.47;100.00
76024;BME280;64719;52.124;6.226;2023-09-19T07:14:20;101007.22;;;17.59;100.00
76024;BME280;64719;52.124;6.226;2023-09-19T07:16:46;101008.31;;;17.53;100.00
76024;BME280;64719;52.124;6.226;2023-09-19T07:19:14;101003.91;;;17.82;100.00
76024;BME280;64719;52.124;6.226;2023-09-19T07:21:41;101015.16;;;18.05;100.00
76024;BME280;64719;52.124;6.226;2023-09-19T07:24:08;101008.03;;;18.04;100.00
76024;BME280;64719;52.124;6.226;2023-09-19T07:26:35;101014.59;;;18.23;100.00
76024;BME280;64719;52.124;6.226;2023-09-19T07:29:03;101006.84;;;18.31;100.00
76024;BME280;64719;52.124;6.226;2023-09-19T07:31:29;101004.88;;;18.56;100.00
76024;BME280;64719;52.124;6.226;2023-09-19T07:33:57;100993.66;;;19.06;100.00
76024;BME280;64719;52.124;6.226;2023-09-19T07:36:23;101006.44;;;18.87;100.00
76024;BME280;64719;52.124;6.226;2023-09-19T07:38:50;101011.06;;;19.45;100.00
76024;BME280;64719;52.124;6.226;2023-09-19T07:41:17;101003.56;;;19.07;100.00
76024;BME280;64719;52.124;6.226;2023-09-19T07:43:43;101010.94;;;19.60;100.00
76024;BME280;64719;52.124;6.226;2023-09-19T07:46:11;101009.50;;;19.68;100.00
76024;BME280;64719;52.124;6.226;2023-09-19T07:48:38;101020.03;;;19.12;100.00
76024;BME280;64719;52.124;6.226;2023-09-19T07:51:08;101017.56;;;19.16;100.00
76024;BME280;64719;52.124;6.226;2023-09-19T07:53:35;101017.75;;;19.34;100.00
76024;BME280;64719;52.124;6.226;2023-09-19T07:56:03;101021.78;;;19.85;100.00
76024;BME280;64719;52.124;6.226;2023-09-19T07:58:30;101031.31;;;19.64;100.00
76024;BME280;64719;52.124;6.226;2023-09-19T08:01:01;101021.69;;;19.13;100.00
76024;BME280;64719;52.124;6.226;2023-09-19T08:03:29;101021.31;;;21.06;100.00
76024;BME280;64719;52.124;6.226;2023-09-19T08:05:56;101029.22;;;21.50;100.00
76024;BME280;64719;52.124;6.226;2023-09-19T08:08:24;101027.22;;;21.18;100.00
76024;BME280;64719;52.124;6.226;2023-09-19T08:10:53;101021.16;;;21.91;100.00
76024;BME280;64719;52.124;6.226;2023-09-19T08:13:21;101022.72;;;22.96;100.00
76024;BME280;64719;52.124;6.226;2023-09-19T08:15:47;101018.47;;;22.31;100.00
76024;BME280;64719;52.124;6.226;2023-09-19T08:18:14;101015.81;;;23.34;100.00
76024;BME280;64719;52.124;6.226;2023-09-19T08:20:43;101017.34;;;23.85;100.00
76024;BME280;64719;52.124;6.226;2023-09-19T08:23:11;101015.34;;;23.99;100.00
76024;BME280;64719;52.124;6.226;2023-09-19T08:25:38;101029.03;;;22.43;100.00
76024;BME280;64719;52.124;6.226;2023-09-19T08:28:05;101019.94;;;24.03;100.00
76024;BME280;64719;52.124;6.226;2023-09-19T08:30:34;101028.47;;;21.63;100.00
76024;BME280;64719;52.124;6.226;2023-09-19T08:33:00;101032.50;;;23.43;100.00
76024;BME280;64719;52.124;6.226;2023-09-19T08:35:30;101043.50;;;23.21;100.00
76024;BME280;64719;52.124;6.226;2023-09-19T08:37:58;101033.06;;;23.31;100.00
76024;BME280;64719;52.124;6.226;2023-09-19T08:40:26;101032.03;;;23.00;100.00
76024;BME280;64719;52.124;6.226;2023-09-19T08:42:55;101034.41;;;24.83;100.00
76024;BME280;64719;52.124;6.226;2023-09-19T08:45:24;101035.69;;;24.47;100.00
76024;BME280;64719;52.124;6.226;2023-09-19T08:47:58;101033.50;;;24.05;100.00
76024;BME280;64719;52.124;6.226;2023-09-19T08:50:28;101029.06;;;22.83;100.00
76024;BME280;64719;52.124;6.226;2023-09-19T08:53:01;101030.50;;;22.94;100.00
76024;BME280;64719;52.124;6.226;2023-09-19T08:55:28;101027.13;;;21.05;100.00
76024;BME280;64719;52.124;6.226;2023-09-19T08:58:00;101029.31;;;21.63;100.00
76024;BME280;64719;52.124;6.226;2023-09-19T09:00:27;101033.91;;;21.68;100.00
76024;BME280;64719;52.124;6.226;2023-09-19T09:02:55;101037.66;;;21.77;100.00
76024;BME280;64719;52.124;6.226;2023-09-19T09:05:22;101016.88;;;23.47;100.00
76024;BME280;64719;52.124;6.226;2023-09-19T09:07:50;101021.66;;;23.06;100.00
76024;BME280;64719;52.124;6.226;2023-09-19T09:10:18;101030.25;;;23.89;100.00
76024;BME280;64719;52.124;6.226;2023-09-19T09:12:48;101026.25;;;23.95;100.00
76024;BME280;64719;52.124;6.226;2023-09-19T09:15:15;101022.66;;;23.23;100.00
76024;BME280;64719;52.124;6.226;2023-09-19T09:17:46;101010.16;;;24.06;100.00
76024;BME280;64719;52.124;6.226;2023-09-19T09:20:13;101015.72;;;23.62;100.00
76024;BME280;64719;52.124;6.226;2023-09-19T09:22:50;101002.28;;;24.21;100.00
76024;BME280;64719;52.124;6.226;2023-09-19T09:25:19;101002.31;;;25.08;100.00
76024;BME280;64719;52.124;6.226;2023-09-19T09:27:58;101013.59;;;25.20;100.00
76024;BME280;64719;52.124;6.226;2023-09-19T09:30:35;101014.59;;;24.68;100.00
76024;BME280;64719;52.124;6.226;2023-09-19T09:33:09;101012.50;;;25.47;100.00
76024;BME280;64719;52.124;6.226;2023-09-19T09:35:37;101018.38;;;25.71;96.16
76024;BME280;64719;52.124;6.226;2023-09-19T09:38:06;101018.00;;;25.13;99.11
76024;BME280;64719;52.124;6.226;2023-09-19T09:40:48;101008.56;;;24.74;94.08
76024;BME280;64719;52.124;6.226;2023-09-19T09:43:30;100999.94;;;26.38;92.73
76024;BME280;64719;52.124;6.226;2023-09-19T09:46:11;101003.22;;;26.31;85.99
76024;BME280;64719;52.124;6.226;2023-09-19T09:48:57;101005.38;;;26.26;91.86
76024;BME280;64719;52.124;6.226;2023-09-19T09:51:58;100993.91;;;26.73;87.95
76024;BME280;64719;52.124;6.226;2023-09-19T09:54:26;100997.06;;;26.55;88.90
76024;BME280;64719;52.124;6.226;2023-09-19T09:56:59;100998.50;;;27.28;80.60
76024;BME280;64719;52.124;6.226;2023-09-19T09:59:49;100996.28;;;25.23;90.92
76024;BME280;64719;52.124;6.226;2023-09-19T10:02:17;100997.44;;;23.61;100.00
76024;BME280;64719;52.124;6.226;2023-09-19T10:04:54;101003.78;;;25.14;91.56
76024;BME280;64719;52.124;6.226;2023-09-19T10:07:35;101004.94;;;23.24;100.00
76024;BME280;64719;52.124;6.226;2023-09-19T10:10:07;101007.59;;;23.29;100.00
76024;BME280;64719;52.124;6.226;2023-09-19T10:12:44;101012.63;;;23.14;100.00
76024;BME280;64719;52.124;6.226;2023-09-19T10:15:14;100996.50;;;23.43;100.00
76024;BME280;64719;52.124;6.226;2023-09-19T10:17:43;101007.72;;;23.24;100.00
76024;BME280;64719;52.124;6.226;2023-09-19T10:20:15;101004.94;;;22.16;100.00
76024;BME280;64719;52.124;6.226;2023-09-19T10:23:04;100990.00;;;22.98;100.00
76024;BME280;64719;52.124;6.226;2023-09-19T10:25:36;101002.28;;;23.33;100.00
76024;BME280;64719;52.124;6.226;2023-09-19T10:28:05;100995.94;;;25.93;90.81
76024;BME280;64719;52.124;6.226;2023-09-19T10:30:37;100992.72;;;27.53;76.71
76024;BME280;64719;52.124;6.226;2023-09-19T10:33:08;100993.59;;;25.01;91.82
76024;BME280;64719;52.124;6.226;2023-09-19T10:35:38;100993.41;;;24.41;100.00
76024;BME280;64719;52.124;6.226;2023-09-19T10:38:09;100982.09;;;25.33;91.11
76024;BME280;64719;52.124;6.226;2023-09-19T10:40:37;100976.09;;;24.92;97.55
76024;BME280;64719;52.124;6.226;2023-09-19T10:43:11;100980.91;;;24.61;100.00
76024;BME280;64719;52.124;6.226;2023-09-19T10:45:38;100990.91;;;24.01;100.00
76024;BME280;64719;52.124;6.226;2023-09-19T10:48:06;100989.22;;;22.84;100.00
76024;BME280;64719;52.124;6.226;2023-09-19T10:50:36;100999.03;;;21.72;100.00
76024;BME280;64719;52.124;6.226;2023-09-19T10:53:12;100990.69;;;21.58;100.00
76024;BME280;64719;52.124;6.226;2023-09-19T10:55:40;100994.22;;;21.45;100.00
76024;BME280;64719;52.124;6.226;2023-09-19T10:58:08;100983.84;;;21.37;100.00
76024;BME280;64719;52.124;6.226;2023-09-19T11:00:53;100985.13;;;22.55;100.00
76024;BME280;64719;52.124;6.226;2023-09-19T11:03:21;100982.28;;;23.09;100.00
76024;BME280;64719;52.124;6.226;2023-09-19T11:06:06;100984.63;;;22.07;100.00
76024;BME280;64719;52.124;6.226;2023-09-19T11:08:56;100974.00;;;22.14;100.00
76024;BME280;64719;52.124;6.226;2023-09-19T11:11:46;100960.31;;;22.77;100.00
76024;BME280;64719;52.124;6.226;2023-09-19T11:14:37;100963.56;;;22.38;100.00
76024;BME280;64719;52.124;6.226;2023-09-19T11:20:20;100964.97;;;21.44;100.00
76024;BME280;64719;52.124;6.226;2023-09-19T11:23:21;100966.25;;;21.33;100.00
76024;BME280;64719;52.124;6.226;2023-09-19T11:25:57;100948.75;;;21.56;100.00
76024;BME280;64719;52.124;6.226;2023-09-19T11:28:34;100931.13;;;21.52;100.00
76024;BME280;64719;52.124;6.226;2023-09-19T11:34:39;100924.22;;;21.68;100.00
76024;BME280;64719;52.124;6.226;2023-09-19T11:40:28;100939.91;;;21.41;100.00
76024;BME280;64719;52.124;6.226;2023-09-19T11:42:57;100937.16;;;21.41;100.00
76024;BME280;64719;52.124;6.226;2023-09-19T11:48:28;100932.78;;;21.86;100.00
76024;BME280;64719;52.124;6.226;2023-09-19T11:50:56;100940.44;;;22.34;100.00
76024;BME280;64719;52.124;6.226;2023-09-19T11:53:31;100935.72;;;21.43;100.00
76024;BME280;64719;52.124;6.226;2023-09-19T11:55:58;100950.53;;;21.66;100.00
76024;BME280;64719;52.124;6.226;2023-09-19T11:58:27;100941.56;;;21.74;100.00
76024;BME280;64719;52.124;6.226;2023-09-19T12:00:55;100928.53;;;22.47;100.00
76024;BME280;64719;52.124;6.226;2023-09-19T12:03:29;100913.56;;;22.89;100.00
76024;BME280;64719;52.124;6.226;2023-09-19T12:05:56;100900.34;;;22.86;100.00
76024;BME280;64719;52.124;6.226;2023-09-19T12:08:23;100911.94;;;22.74;100.00
76024;BME280;64719;52.124;6.226;2023-09-19T12:10:53;100912.16;;;22.37;100.00
76024;BME280;64719;52.124;6.226;2023-09-19T12:13:20;100920.75;;;22.76;100.00
76024;BME280;64719;52.124;6.226;2023-09-19T12:15:48;100919.13;;;22.62;100.00
76024;BME280;64719;52.124;6.226;2023-09-19T12:18:27;100923.47;;;23.39;100.00
76024;BME280;64719;52.124;6.226;2023-09-19T12:20:55;100922.31;;;23.40;100.00
76024;BME280;64719;52.124;6.226;2023-09-19T12:23:23;100929.25;;;23.51;100.00
76024;BME280;64719;52.124;6.226;2023-09-19T12:25:51;100911.69;;;22.98;100.00
76024;BME280;64719;52.124;6.226;2023-09-19T12:28:21;100905.63;;;22.60;100.00
76024;BME280;64719;52.124;6.226;2023-09-19T12:30:50;100916.16;;;22.04;100.00
76024;BME280;64719;52.124;6.226;2023-09-19T12:33:20;100904.50;;;22.97;100.00
76024;BME280;64719;52.124;6.226;2023-09-19T12:35:51;100921.44;;;23.31;100.00
76024;BME280;64719;52.124;6.226;2023-09-19T12:38:24;100908.84;;;25.29;97.22
76024;BME280;64719;52.124;6.226;2023-09-19T12:40:54;100913.19;;;25.81;89.23
76024;BME280;64719;52.124;6.226;2023-09-19T12:43:22;100921.75;;;25.42;86.24
76024;BME280;64719;52.124;6.226;2023-09-19T12:45:50;100915.25;;;23.56;100.00
76024;BME280;64719;52.124;6.226;2023-09-19T12:48:20;100898.69;;;22.85;100.00
76024;BME280;64719;52.124;6.226;2023-09-19T12:51:00;100906.94;;;22.63;100.00
76024;BME280;64719;52.124;6.226;2023-09-19T12:53:32;100912.56;;;22.04;100.00
76024;BME280;64719;52.124;6.226;2023-09-19T12:55:59;100927.16;;;21.77;100.00
76024;BME280;64719;52.124;6.226;2023-09-19T12:58:26;100906.94;;;21.63;100.00
76024;BME280;64719;52.124;6.226;2023-09-19T13:00:54;100909.56;;;21.54;100.00
76024;BME280;64719;52.124;6.226;2023-09-19T13:03:25;100905.44;;;21.52;100.00
76024;BME280;64719;52.124;6.226;2023-09-19T13:05:54;100907.69;;;21.36;100.00